sensor_id;sensor_type;location;lat;lon;timestamp;P1;durP1;ratioP1;P2;durP2;ratioP2
52848;SDS011;38714;53.180;5.812;2022-07-25T00:02:22;2.70;;;2.40;;
52848;SDS011;38714;53.180;5.812;2022-07-25T00:04:47;3.78;;;2.38;;
52848;SDS011;38714;53.180;5.812;2022-07-25T00:07:14;2.80;;;2.28;;
52848;SDS011;38714;53.180;5.812;2022-07-25T00:09:39;2.40;;;1.88;;
52848;SDS011;38714;53.180;5.812;2022-07-25T00:12:05;2.20;;;2.05;;
52848;SDS011;38714;53.180;5.812;2022-07-25T00:14:31;2.53;;;2.33;;
52848;SDS011;38714;53.180;5.812;2022-07-25T00:16:56;1.77;;;1.67;;
52848;SDS011;38714;53.180;5.812;2022-07-25T00:19:22;2.20;;;2.10;;
52848;SDS011;38714;53.180;5.812;2022-07-25T00:21:48;2.20;;;1.83;;
52848;SDS011;38714;53.180;5.812;2022-07-25T00:24:14;3.15;;;2.60;;
52848;SDS011;38714;53.180;5.812;2022-07-25T00:26:39;4.05;;;2.70;;
52848;SDS011;38714;53.180;5.812;2022-07-25T00:29:05;2.58;;;2.33;;
52848;SDS011;38714;53.180;5.812;2022-07-25T00:31:30;3.22;;;1.90;;
52848;SDS011;38714;53.180;5.812;2022-07-25T00:33:56;2.90;;;2.58;;
52848;SDS011;38714;53.180;5.812;2022-07-25T00:36:21;2.70;;;2.42;;
52848;SDS011;38714;53.180;5.812;2022-07-25T00:38:47;2.80;;;2.60;;
52848;SDS011;38714;53.180;5.812;2022-07-25T00:41:12;3.63;;;2.38;;
52848;SDS011;38714;53.180;5.812;2022-07-25T00:43:41;2.38;;;2.17;;
52848;SDS011;38714;53.180;5.812;2022-07-25T00:46:10;2.85;;;2.20;;
52848;SDS011;38714;53.180;5.812;2022-07-25T00:48:37;3.47;;;2.00;;
52848;SDS011;38714;53.180;5.812;2022-07-25T00:51:03;5.47;;;2.60;;
52848;SDS011;38714;53.180;5.812;2022-07-25T00:53:29;2.53;;;2.40;;
52848;SDS011;38714;53.180;5.812;2022-07-25T00:55:55;3.13;;;2.60;;
52848;SDS011;38714;53.180;5.812;2022-07-25T00:58:21;3.22;;;2.88;;
52848;SDS011;38714;53.180;5.812;2022-07-25T01:00:46;2.42;;;2.22;;
52848;SDS011;38714;53.180;5.812;2022-07-25T01:03:12;2.42;;;1.98;;
52848;SDS011;38714;53.180;5.812;2022-07-25T01:05:38;5.07;;;2.80;;
52848;SDS011;38714;53.180;5.812;2022-07-25T01:08:04;2.47;;;2.28;;
52848;SDS011;38714;53.180;5.812;2022-07-25T01:10:30;3.60;;;2.35;;
52848;SDS011;38714;53.180;5.812;2022-07-25T01:12:56;3.25;;;2.55;;
52848;SDS011;38714;53.180;5.812;2022-07-25T01:15:22;2.28;;;2.15;;
52848;SDS011;38714;53.180;5.812;2022-07-25T01:17:48;2.42;;;2.17;;
52848;SDS011;38714;53.180;5.812;2022-07-25T01:20:15;3.25;;;2.58;;
52848;SDS011;38714;53.180;5.812;2022-07-25T01:22:42;3.30;;;3.00;;
52848;SDS011;38714;53.180;5.812;2022-07-25T01:25:08;2.60;;;2.05;;
52848;SDS011;38714;53.180;5.812;2022-07-25T01:27:38;2.88;;;2.17;;
52848;SDS011;38714;53.180;5.812;2022-07-25T01:30:06;4.20;;;2.70;;
52848;SDS011;38714;53.180;5.812;2022-07-25T01:32:34;3.33;;;2.45;;
52848;SDS011;38714;53.180;5.812;2022-07-25T01:35:00;2.70;;;2.50;;
52848;SDS011;38714;53.180;5.812;2022-07-25T01:37:26;3.42;;;2.78;;
52848;SDS011;38714;53.180;5.812;2022-07-25T01:39:52;2.83;;;2.30;;
52848;SDS011;38714;53.180;5.812;2022-07-25T01:42:17;3.25;;;2.95;;
52848;SDS011;38714;53.180;5.812;2022-07-25T01:44:43;5.38;;;2.95;;
52848;SDS011;38714;53.180;5.812;2022-07-25T01:47:09;6.70;;;3.38;;
52848;SDS011;38714;53.180;5.812;2022-07-25T01:49:34;3.13;;;2.75;;
52848;SDS011;38714;53.180;5.812;2022-07-25T01:52:00;4.00;;;3.10;;
52848;SDS011;38714;53.180;5.812;2022-07-25T01:54:26;3.25;;;2.92;;
52848;SDS011;38714;53.180;5.812;2022-07-25T01:56:51;3.22;;;2.92;;
52848;SDS011;38714;53.180;5.812;2022-07-25T01:59:17;4.28;;;3.90;;
52848;SDS011;38714;53.180;5.812;2022-07-25T02:01:43;4.97;;;3.15;;
52848;SDS011;38714;53.180;5.812;2022-07-25T02:04:08;4.45;;;4.05;;
52848;SDS011;38714;53.180;5.812;2022-07-25T02:06:34;5.18;;;3.85;;
52848;SDS011;38714;53.180;5.812;2022-07-25T02:09:00;5.93;;;3.75;;
52848;SDS011;38714;53.180;5.812;2022-07-25T02:11:27;3.78;;;3.45;;
52848;SDS011;38714;53.180;5.812;2022-07-25T02:13:53;6.60;;;4.25;;
52848;SDS011;38714;53.180;5.812;2022-07-25T02:16:18;6.32;;;4.55;;
52848;SDS011;38714;53.180;5.812;2022-07-25T02:18:44;4.55;;;3.25;;
52848;SDS011;38714;53.180;5.812;2022-07-25T02:21:10;5.75;;;3.95;;
52848;SDS011;38714;53.180;5.812;2022-07-25T02:23:35;8.02;;;4.55;;
52848;SDS011;38714;53.180;5.812;2022-07-25T02:26:01;8.15;;;4.30;;
52848;SDS011;38714;53.180;5.812;2022-07-25T02:28:27;5.65;;;5.13;;
52848;SDS011;38714;53.180;5.812;2022-07-25T02:30:53;6.18;;;4.60;;
52848;SDS011;38714;53.180;5.812;2022-07-25T02:33:18;6.68;;;3.80;;
52848;SDS011;38714;53.180;5.812;2022-07-25T02:35:44;4.70;;;3.42;;
52848;SDS011;38714;53.180;5.812;2022-07-25T02:38:10;4.53;;;3.88;;
52848;SDS011;38714;53.180;5.812;2022-07-25T02:40:43;4.97;;;4.53;;
52848;SDS011;38714;53.180;5.812;2022-07-25T02:43:16;6.18;;;4.97;;
52848;SDS011;38714;53.180;5.812;2022-07-25T02:45:42;4.07;;;3.72;;
52848;SDS011;38714;53.180;5.812;2022-07-25T02:48:08;5.18;;;4.68;;
52848;SDS011;38714;53.180;5.812;2022-07-25T02:50:35;4.80;;;4.03;;
52848;SDS011;38714;53.180;5.812;2022-07-25T02:53:01;5.13;;;4.07;;
52848;SDS011;38714;53.180;5.812;2022-07-25T02:55:27;6.20;;;4.22;;
52848;SDS011;38714;53.180;5.812;2022-07-25T02:57:52;5.63;;;3.97;;
52848;SDS011;38714;53.180;5.812;2022-07-25T03:00:18;10.00;;;4.15;;
52848;SDS011;38714;53.180;5.812;2022-07-25T03:02:44;6.03;;;4.18;;
52848;SDS011;38714;53.180;5.812;2022-07-25T03:05:11;5.13;;;3.47;;
52848;SDS011;38714;53.180;5.812;2022-07-25T03:07:38;3.28;;;2.97;;
52848;SDS011;38714;53.180;5.812;2022-07-25T03:10:05;3.72;;;3.20;;
52848;SDS011;38714;53.180;5.812;2022-07-25T03:12:31;4.35;;;3.95;;
52848;SDS011;38714;53.180;5.812;2022-07-25T03:14:57;3.72;;;3.40;;
52848;SDS011;38714;53.180;5.812;2022-07-25T03:17:23;13.05;;;3.42;;
52848;SDS011;38714;53.180;5.812;2022-07-25T03:19:49;4.15;;;3.70;;
52848;SDS011;38714;53.180;5.812;2022-07-25T03:22:15;3.47;;;3.17;;
52848;SDS011;38714;53.180;5.812;2022-07-25T03:24:41;10.80;;;3.30;;
52848;SDS011;38714;53.180;5.812;2022-07-25T03:27:07;3.78;;;3.47;;
52848;SDS011;38714;53.180;5.812;2022-07-25T03:29:33;3.67;;;2.85;;
52848;SDS011;38714;53.180;5.812;2022-07-25T03:31:58;5.68;;;4.13;;
52848;SDS011;38714;53.180;5.812;2022-07-25T03:34:24;4.32;;;2.85;;
52848;SDS011;38714;53.180;5.812;2022-07-25T03:36:50;4.22;;;3.28;;
52848;SDS011;38714;53.180;5.812;2022-07-25T03:39:16;3.97;;;3.47;;
52848;SDS011;38714;53.180;5.812;2022-07-25T03:41:42;4.03;;;3.00;;
52848;SDS011;38714;53.180;5.812;2022-07-25T03:44:07;8.40;;;4.95;;
52848;SDS011;38714;53.180;5.812;2022-07-25T03:46:33;3.08;;;2.78;;
52848;SDS011;38714;53.180;5.812;2022-07-25T03:48:58;3.80;;;3.60;;
52848;SDS011;38714;53.180;5.812;2022-07-25T03:51:24;4.22;;;2.70;;
52848;SDS011;38714;53.180;5.812;2022-07-25T03:53:50;2.97;;;2.75;;
52848;SDS011;38714;53.180;5.812;2022-07-25T03:56:45;8.98;;;3.92;;
52848;SDS011;38714;53.180;5.812;2022-07-25T03:59:14;5.47;;;3.90;;
52848;SDS011;38714;53.180;5.812;2022-07-25T04:01:42;4.13;;;2.97;;
52848;SDS011;38714;53.180;5.812;2022-07-25T04:04:09;3.70;;;2.83;;
52848;SDS011;38714;53.180;5.812;2022-07-25T04:06:35;3.42;;;2.90;;
52848;SDS011;38714;53.180;5.812;2022-07-25T04:09:02;4.55;;;4.15;;
52848;SDS011;38714;53.180;5.812;2022-07-25T04:11:28;4.20;;;3.63;;
52848;SDS011;38714;53.180;5.812;2022-07-25T04:13:55;3.45;;;3.13;;
52848;SDS011;38714;53.180;5.812;2022-07-25T04:16:21;3.55;;;3.13;;
52848;SDS011;38714;53.180;5.812;2022-07-25T04:18:48;4.10;;;3.45;;
52848;SDS011;38714;53.180;5.812;2022-07-25T04:21:15;2.83;;;2.63;;
52848;SDS011;38714;53.180;5.812;2022-07-25T04:23:41;4.60;;;4.20;;
52848;SDS011;38714;53.180;5.812;2022-07-25T04:26:06;4.13;;;3.30;;
52848;SDS011;38714;53.180;5.812;2022-07-25T04:28:32;6.28;;;3.83;;
52848;SDS011;38714;53.180;5.812;2022-07-25T04:30:57;4.53;;;3.40;;
52848;SDS011;38714;53.180;5.812;2022-07-25T04:33:23;5.05;;;4.35;;
52848;SDS011;38714;53.180;5.812;2022-07-25T04:35:49;6.22;;;4.32;;
52848;SDS011;38714;53.180;5.812;2022-07-25T04:38:15;4.63;;;3.78;;
52848;SDS011;38714;53.180;5.812;2022-07-25T04:40:41;4.25;;;3.35;;
52848;SDS011;38714;53.180;5.812;2022-07-25T04:43:07;4.25;;;3.78;;
52848;SDS011;38714;53.180;5.812;2022-07-25T04:45:32;3.85;;;3.55;;
52848;SDS011;38714;53.180;5.812;2022-07-25T04:47:59;6.97;;;4.30;;
52848;SDS011;38714;53.180;5.812;2022-07-25T04:50:25;7.43;;;4.93;;
52848;SDS011;38714;53.180;5.812;2022-07-25T04:52:51;4.95;;;4.00;;
52848;SDS011;38714;53.180;5.812;2022-07-25T04:55:17;8.52;;;3.97;;
52848;SDS011;38714;53.180;5.812;2022-07-25T04:57:42;4.30;;;3.75;;
52848;SDS011;38714;53.180;5.812;2022-07-25T05:00:09;4.43;;;4.00;;
52848;SDS011;38714;53.180;5.812;2022-07-25T05:02:35;5.30;;;4.35;;
52848;SDS011;38714;53.180;5.812;2022-07-25T05:05:02;4.80;;;4.30;;
52848;SDS011;38714;53.180;5.812;2022-07-25T05:07:27;5.85;;;4.45;;
52848;SDS011;38714;53.180;5.812;2022-07-25T05:09:53;4.93;;;3.72;;
52848;SDS011;38714;53.180;5.812;2022-07-25T05:12:19;5.05;;;3.95;;
52848;SDS011;38714;53.180;5.812;2022-07-25T05:14:45;5.28;;;4.78;;
52848;SDS011;38714;53.180;5.812;2022-07-25T05:17:10;5.22;;;4.30;;
52848;SDS011;38714;53.180;5.812;2022-07-25T05:19:36;4.15;;;3.65;;
52848;SDS011;38714;53.180;5.812;2022-07-25T05:22:02;10.63;;;5.28;;
52848;SDS011;38714;53.180;5.812;2022-07-25T05:24:28;7.72;;;5.15;;
52848;SDS011;38714;53.180;5.812;2022-07-25T05:26:57;8.65;;;5.32;;
52848;SDS011;38714;53.180;5.812;2022-07-25T05:29:23;6.53;;;5.15;;
52848;SDS011;38714;53.180;5.812;2022-07-25T05:31:48;4.82;;;4.30;;
52848;SDS011;38714;53.180;5.812;2022-07-25T05:34:14;5.40;;;4.68;;
52848;SDS011;38714;53.180;5.812;2022-07-25T05:36:39;4.40;;;4.03;;
52848;SDS011;38714;53.180;5.812;2022-07-25T05:39:05;4.90;;;4.43;;
52848;SDS011;38714;53.180;5.812;2022-07-25T05:41:31;5.72;;;4.95;;
52848;SDS011;38714;53.180;5.812;2022-07-25T05:43:56;5.40;;;4.63;;
52848;SDS011;38714;53.180;5.812;2022-07-25T05:46:22;6.28;;;4.72;;
52848;SDS011;38714;53.180;5.812;2022-07-25T05:48:47;7.47;;;6.22;;
52848;SDS011;38714;53.180;5.812;2022-07-25T05:51:13;8.55;;;5.13;;
52848;SDS011;38714;53.180;5.812;2022-07-25T05:53:38;5.28;;;4.68;;
52848;SDS011;38714;53.180;5.812;2022-07-25T05:56:04;9.10;;;5.45;;
52848;SDS011;38714;53.180;5.812;2022-07-25T05:58:30;5.82;;;5.22;;
52848;SDS011;38714;53.180;5.812;2022-07-25T06:00:56;7.57;;;5.90;;
52848;SDS011;38714;53.180;5.812;2022-07-25T06:03:22;6.47;;;5.82;;
52848;SDS011;38714;53.180;5.812;2022-07-25T06:05:48;8.50;;;6.07;;
52848;SDS011;38714;53.180;5.812;2022-07-25T06:08:14;6.35;;;5.78;;
52848;SDS011;38714;53.180;5.812;2022-07-25T06:10:40;7.30;;;6.10;;
52848;SDS011;38714;53.180;5.812;2022-07-25T06:13:05;7.70;;;5.18;;
52848;SDS011;38714;53.180;5.812;2022-07-25T06:15:31;6.45;;;5.80;;
52848;SDS011;38714;53.180;5.812;2022-07-25T06:17:57;7.78;;;6.20;;
52848;SDS011;38714;53.180;5.812;2022-07-25T06:20:23;10.02;;;6.53;;
52848;SDS011;38714;53.180;5.812;2022-07-25T06:22:49;8.70;;;6.07;;
52848;SDS011;38714;53.180;5.812;2022-07-25T06:25:14;6.90;;;5.53;;
52848;SDS011;38714;53.180;5.812;2022-07-25T06:27:40;7.55;;;5.72;;
52848;SDS011;38714;53.180;5.812;2022-07-25T06:30:06;7.25;;;6.25;;
52848;SDS011;38714;53.180;5.812;2022-07-25T06:32:33;7.78;;;6.93;;
52848;SDS011;38714;53.180;5.812;2022-07-25T06:34:59;9.50;;;6.63;;
52848;SDS011;38714;53.180;5.812;2022-07-25T06:37:24;7.60;;;6.82;;
52848;SDS011;38714;53.180;5.812;2022-07-25T06:39:50;5.72;;;5.13;;
52848;SDS011;38714;53.180;5.812;2022-07-25T06:42:16;7.90;;;5.57;;
52848;SDS011;38714;53.180;5.812;2022-07-25T06:44:41;9.20;;;6.65;;
52848;SDS011;38714;53.180;5.812;2022-07-25T06:47:07;4.70;;;3.72;;
52848;SDS011;38714;53.180;5.812;2022-07-25T06:49:36;6.32;;;4.75;;
52848;SDS011;38714;53.180;5.812;2022-07-25T06:52:03;4.25;;;3.78;;
52848;SDS011;38714;53.180;5.812;2022-07-25T06:54:29;5.75;;;3.60;;
52848;SDS011;38714;53.180;5.812;2022-07-25T06:56:54;4.07;;;3.15;;
52848;SDS011;38714;53.180;5.812;2022-07-25T06:59:20;3.25;;;3.00;;
52848;SDS011;38714;53.180;5.812;2022-07-25T07:01:46;4.32;;;3.92;;
52848;SDS011;38714;53.180;5.812;2022-07-25T07:04:11;5.93;;;3.72;;
52848;SDS011;38714;53.180;5.812;2022-07-25T07:06:37;2.17;;;1.95;;
52848;SDS011;38714;53.180;5.812;2022-07-25T07:09:04;1.83;;;1.50;;
52848;SDS011;38714;53.180;5.812;2022-07-25T07:11:30;2.30;;;2.03;;
52848;SDS011;38714;53.180;5.812;2022-07-25T07:13:55;1.85;;;1.70;;
52848;SDS011;38714;53.180;5.812;2022-07-25T07:16:21;2.08;;;1.88;;
52848;SDS011;38714;53.180;5.812;2022-07-25T07:18:47;1.63;;;1.52;;
52848;SDS011;38714;53.180;5.812;2022-07-25T07:21:12;1.88;;;1.77;;
52848;SDS011;38714;53.180;5.812;2022-07-25T07:23:38;2.10;;;1.90;;
52848;SDS011;38714;53.180;5.812;2022-07-25T07:26:03;2.83;;;1.33;;
52848;SDS011;38714;53.180;5.812;2022-07-25T07:28:29;1.88;;;1.20;;
52848;SDS011;38714;53.180;5.812;2022-07-25T07:30:54;3.58;;;1.60;;
52848;SDS011;38714;53.180;5.812;2022-07-25T07:33:20;1.05;;;1.02;;
52848;SDS011;38714;53.180;5.812;2022-07-25T07:35:45;1.08;;;1.08;;
52848;SDS011;38714;53.180;5.812;2022-07-25T07:38:11;2.25;;;1.45;;
52848;SDS011;38714;53.180;5.812;2022-07-25T07:40:37;3.40;;;1.58;;
52848;SDS011;38714;53.180;5.812;2022-07-25T07:43:02;1.75;;;1.65;;
52848;SDS011;38714;53.180;5.812;2022-07-25T07:45:28;3.60;;;1.73;;
52848;SDS011;38714;53.180;5.812;2022-07-25T07:47:54;3.22;;;1.42;;
52848;SDS011;38714;53.180;5.812;2022-07-25T07:50:24;2.90;;;1.67;;
52848;SDS011;38714;53.180;5.812;2022-07-25T07:52:52;2.47;;;1.17;;
52848;SDS011;38714;53.180;5.812;2022-07-25T07:55:19;1.60;;;1.50;;
52848;SDS011;38714;53.180;5.812;2022-07-25T07:58:03;1.67;;;1.20;;
52848;SDS011;38714;53.180;5.812;2022-07-25T08:00:30;3.70;;;2.10;;
52848;SDS011;38714;53.180;5.812;2022-07-25T08:02:56;0.70;;;0.70;;
52848;SDS011;38714;53.180;5.812;2022-07-25T08:05:24;1.70;;;1.60;;
52848;SDS011;38714;53.180;5.812;2022-07-25T08:07:53;5.00;;;1.77;;
52848;SDS011;38714;53.180;5.812;2022-07-25T08:10:20;1.90;;;1.80;;
52848;SDS011;38714;53.180;5.812;2022-07-25T08:12:47;1.30;;;1.00;;
52848;SDS011;38714;53.180;5.812;2022-07-25T08:15:13;4.82;;;3.08;;
52848;SDS011;38714;53.180;5.812;2022-07-25T08:17:39;1.48;;;1.38;;
52848;SDS011;38714;53.180;5.812;2022-07-25T08:20:05;3.40;;;1.77;;
52848;SDS011;38714;53.180;5.812;2022-07-25T08:22:50;1.40;;;1.30;;
52848;SDS011;38714;53.180;5.812;2022-07-25T08:25:17;6.75;;;1.70;;
52848;SDS011;38714;53.180;5.812;2022-07-25T08:27:44;1.48;;;1.33;;
52848;SDS011;38714;53.180;5.812;2022-07-25T08:30:11;3.58;;;1.75;;
52848;SDS011;38714;53.180;5.812;2022-07-25T08:32:51;2.80;;;1.38;;
52848;SDS011;38714;53.180;5.812;2022-07-25T08:35:21;1.58;;;1.42;;
52848;SDS011;38714;53.180;5.812;2022-07-25T08:37:48;1.35;;;1.15;;
52848;SDS011;38714;53.180;5.812;2022-07-25T08:40:15;1.52;;;1.42;;
52848;SDS011;38714;53.180;5.812;2022-07-25T08:42:42;1.98;;;0.90;;
52848;SDS011;38714;53.180;5.812;2022-07-25T08:45:10;1.05;;;0.95;;
52848;SDS011;38714;53.180;5.812;2022-07-25T08:47:38;1.17;;;1.05;;
52848;SDS011;38714;53.180;5.812;2022-07-25T08:50:06;2.08;;;1.70;;
52848;SDS011;38714;53.180;5.812;2022-07-25T08:55:06;1.42;;;1.33;;
52848;SDS011;38714;53.180;5.812;2022-07-25T08:57:35;1.83;;;1.73;;
52848;SDS011;38714;53.180;5.812;2022-07-25T09:00:03;2.10;;;1.55;;
52848;SDS011;38714;53.180;5.812;2022-07-25T09:02:30;1.48;;;1.38;;
52848;SDS011;38714;53.180;5.812;2022-07-25T09:04:56;4.20;;;1.60;;
52848;SDS011;38714;53.180;5.812;2022-07-25T09:07:31;1.27;;;1.17;;
52848;SDS011;38714;53.180;5.812;2022-07-25T09:09:59;3.40;;;1.80;;
52848;SDS011;38714;53.180;5.812;2022-07-25T09:12:52;1.55;;;1.15;;
52848;SDS011;38714;53.180;5.812;2022-07-25T09:17:50;2.88;;;1.10;;
52848;SDS011;38714;53.180;5.812;2022-07-25T09:20:16;3.17;;;1.67;;
52848;SDS011;38714;53.180;5.812;2022-07-25T09:22:42;1.52;;;1.20;;
52848;SDS011;38714;53.180;5.812;2022-07-25T09:25:18;1.85;;;1.42;;
52848;SDS011;38714;53.180;5.812;2022-07-25T09:27:45;2.38;;;1.63;;
52848;SDS011;38714;53.180;5.812;2022-07-25T09:30:14;1.75;;;1.35;;
52848;SDS011;38714;53.180;5.812;2022-07-25T09:32:40;3.17;;;1.88;;
52848;SDS011;38714;53.180;5.812;2022-07-25T09:35:06;2.03;;;1.27;;
52848;SDS011;38714;53.180;5.812;2022-07-25T09:37:32;3.40;;;1.63;;
52848;SDS011;38714;53.180;5.812;2022-07-25T09:39:57;2.17;;;1.70;;
52848;SDS011;38714;53.180;5.812;2022-07-25T09:42:28;2.03;;;1.65;;
52848;SDS011;38714;53.180;5.812;2022-07-25T09:47:32;1.60;;;1.38;;
52848;SDS011;38714;53.180;5.812;2022-07-25T09:49:59;1.52;;;1.20;;
52848;SDS011;38714;53.180;5.812;2022-07-25T09:52:25;11.48;;;2.70;;
52848;SDS011;38714;53.180;5.812;2022-07-25T09:54:51;2.10;;;1.25;;
52848;SDS011;38714;53.180;5.812;2022-07-25T09:57:18;4.05;;;1.40;;
52848;SDS011;38714;53.180;5.812;2022-07-25T09:59:45;5.57;;;2.13;;
52848;SDS011;38714;53.180;5.812;2022-07-25T10:02:17;0.95;;;0.95;;
52848;SDS011;38714;53.180;5.812;2022-07-25T10:05:13;1.73;;;1.63;;
52848;SDS011;38714;53.180;5.812;2022-07-25T10:07:52;6.75;;;2.03;;
52848;SDS011;38714;53.180;5.812;2022-07-25T10:10:26;3.17;;;2.05;;
52848;SDS011;38714;53.180;5.812;2022-07-25T10:13:06;2.90;;;1.20;;
52848;SDS011;38714;53.180;5.812;2022-07-25T10:15:48;3.80;;;2.70;;
52848;SDS011;38714;53.180;5.812;2022-07-25T10:18:15;11.82;;;1.40;;
52848;SDS011;38714;53.180;5.812;2022-07-25T10:20:43;7.30;;;1.90;;
52848;SDS011;38714;53.180;5.812;2022-07-25T10:23:20;3.13;;;1.30;;
52848;SDS011;38714;53.180;5.812;2022-07-25T10:28:34;3.90;;;1.60;;
52848;SDS011;38714;53.180;5.812;2022-07-25T10:31:14;3.00;;;2.15;;
52848;SDS011;38714;53.180;5.812;2022-07-25T10:33:54;2.15;;;1.95;;
52848;SDS011;38714;53.180;5.812;2022-07-25T10:36:21;4.47;;;1.85;;
52848;SDS011;38714;53.180;5.812;2022-07-25T10:38:51;2.47;;;1.75;;
52848;SDS011;38714;53.180;5.812;2022-07-25T10:41:22;4.57;;;1.58;;
52848;SDS011;38714;53.180;5.812;2022-07-25T10:43:50;1.85;;;1.75;;
52848;SDS011;38714;53.180;5.812;2022-07-25T10:46:19;1.50;;;1.40;;
52848;SDS011;38714;53.180;5.812;2022-07-25T10:48:56;2.50;;;1.40;;
52848;SDS011;38714;53.180;5.812;2022-07-25T10:51:27;2.45;;;1.45;;
52848;SDS011;38714;53.180;5.812;2022-07-25T10:53:55;1.45;;;1.30;;
52848;SDS011;38714;53.180;5.812;2022-07-25T10:56:22;2.75;;;1.85;;
52848;SDS011;38714;53.180;5.812;2022-07-25T10:58:50;3.50;;;1.52;;
52848;SDS011;38714;53.180;5.812;2022-07-25T11:01:25;2.65;;;1.42;;
52848;SDS011;38714;53.180;5.812;2022-07-25T11:03:56;1.98;;;1.65;;
52848;SDS011;38714;53.180;5.812;2022-07-25T11:06:31;4.00;;;1.40;;
52848;SDS011;38714;53.180;5.812;2022-07-25T11:09:00;3.67;;;1.50;;
52848;SDS011;38714;53.180;5.812;2022-07-25T11:11:32;3.85;;;1.55;;
52848;SDS011;38714;53.180;5.812;2022-07-25T11:14:03;2.03;;;1.50;;
52848;SDS011;38714;53.180;5.812;2022-07-25T11:16:30;4.30;;;2.03;;
52848;SDS011;38714;53.180;5.812;2022-07-25T11:18:55;3.38;;;1.52;;
52848;SDS011;38714;53.180;5.812;2022-07-25T11:21:21;1.45;;;1.35;;
52848;SDS011;38714;53.180;5.812;2022-07-25T11:23:50;3.63;;;1.38;;
52848;SDS011;38714;53.180;5.812;2022-07-25T11:26:16;1.88;;;1.35;;
52848;SDS011;38714;53.180;5.812;2022-07-25T11:28:43;3.63;;;1.63;;
52848;SDS011;38714;53.180;5.812;2022-07-25T11:31:13;6.15;;;1.60;;
52848;SDS011;38714;53.180;5.812;2022-07-25T11:33:40;2.42;;;1.25;;
52848;SDS011;38714;53.180;5.812;2022-07-25T11:36:08;2.65;;;1.95;;
52848;SDS011;38714;53.180;5.812;2022-07-25T11:38:35;2.03;;;1.58;;
52848;SDS011;38714;53.180;5.812;2022-07-25T11:41:01;1.20;;;1.10;;
52848;SDS011;38714;53.180;5.812;2022-07-25T11:43:27;2.15;;;1.33;;
52848;SDS011;38714;53.180;5.812;2022-07-25T11:48:31;3.45;;;2.22;;
52848;SDS011;38714;53.180;5.812;2022-07-25T11:51:14;6.13;;;1.35;;
52848;SDS011;38714;53.180;5.812;2022-07-25T11:53:43;2.95;;;1.50;;
52848;SDS011;38714;53.180;5.812;2022-07-25T11:56:11;1.77;;;1.67;;
52848;SDS011;38714;53.180;5.812;2022-07-25T11:58:42;8.20;;;2.10;;
52848;SDS011;38714;53.180;5.812;2022-07-25T12:01:12;1.70;;;1.17;;
52848;SDS011;38714;53.180;5.812;2022-07-25T12:03:39;2.85;;;1.45;;
52848;SDS011;38714;53.180;5.812;2022-07-25T12:06:09;1.67;;;1.58;;
52848;SDS011;38714;53.180;5.812;2022-07-25T12:08:36;2.97;;;1.80;;
52848;SDS011;38714;53.180;5.812;2022-07-25T12:11:03;2.47;;;1.65;;
52848;SDS011;38714;53.180;5.812;2022-07-25T12:13:39;2.50;;;1.73;;
52848;SDS011;38714;53.180;5.812;2022-07-25T12:16:05;4.18;;;1.65;;
52848;SDS011;38714;53.180;5.812;2022-07-25T12:18:31;3.17;;;1.48;;
52848;SDS011;38714;53.180;5.812;2022-07-25T12:20:56;1.92;;;1.20;;
52848;SDS011;38714;53.180;5.812;2022-07-25T12:23:22;2.38;;;1.52;;
52848;SDS011;38714;53.180;5.812;2022-07-25T12:25:47;7.78;;;2.05;;
52848;SDS011;38714;53.180;5.812;2022-07-25T12:28:13;1.95;;;1.52;;
52848;SDS011;38714;53.180;5.812;2022-07-25T12:30:41;1.90;;;1.70;;
52848;SDS011;38714;53.180;5.812;2022-07-25T12:33:07;3.55;;;1.67;;
52848;SDS011;38714;53.180;5.812;2022-07-25T12:35:33;9.07;;;2.22;;
52848;SDS011;38714;53.180;5.812;2022-07-25T12:38:01;2.55;;;2.38;;
52848;SDS011;38714;53.180;5.812;2022-07-25T12:40:27;3.58;;;2.08;;
52848;SDS011;38714;53.180;5.812;2022-07-25T12:42:53;7.75;;;2.13;;
52848;SDS011;38714;53.180;5.812;2022-07-25T12:45:18;1.88;;;1.58;;
52848;SDS011;38714;53.180;5.812;2022-07-25T12:47:44;3.38;;;2.05;;
52848;SDS011;38714;53.180;5.812;2022-07-25T12:50:11;2.33;;;1.90;;
52848;SDS011;38714;53.180;5.812;2022-07-25T12:52:38;2.25;;;1.55;;
52848;SDS011;38714;53.180;5.812;2022-07-25T12:55:07;5.45;;;2.40;;
52848;SDS011;38714;53.180;5.812;2022-07-25T12:57:35;7.60;;;1.83;;
52848;SDS011;38714;53.180;5.812;2022-07-25T13:00:02;4.03;;;2.60;;
52848;SDS011;38714;53.180;5.812;2022-07-25T13:02:29;1.95;;;1.70;;
52848;SDS011;38714;53.180;5.812;2022-07-25T13:04:55;2.40;;;1.60;;
52848;SDS011;38714;53.180;5.812;2022-07-25T13:07:20;8.05;;;2.20;;
52848;SDS011;38714;53.180;5.812;2022-07-25T13:09:46;5.00;;;2.50;;
52848;SDS011;38714;53.180;5.812;2022-07-25T13:12:12;9.07;;;2.70;;
52848;SDS011;38714;53.180;5.812;2022-07-25T13:14:37;4.25;;;2.33;;
52848;SDS011;38714;53.180;5.812;2022-07-25T13:17:03;3.35;;;1.90;;
52848;SDS011;38714;53.180;5.812;2022-07-25T13:19:29;5.65;;;2.00;;
52848;SDS011;38714;53.180;5.812;2022-07-25T13:21:54;7.40;;;2.60;;
52848;SDS011;38714;53.180;5.812;2022-07-25T13:24:20;3.78;;;1.77;;
52848;SDS011;38714;53.180;5.812;2022-07-25T13:26:45;12.48;;;2.22;;
52848;SDS011;38714;53.180;5.812;2022-07-25T13:29:11;4.35;;;2.47;;
52848;SDS011;38714;53.180;5.812;2022-07-25T13:31:37;5.88;;;2.28;;
52848;SDS011;38714;53.180;5.812;2022-07-25T13:34:03;5.55;;;2.05;;
52848;SDS011;38714;53.180;5.812;2022-07-25T13:36:31;3.60;;;2.33;;
52848;SDS011;38714;53.180;5.812;2022-07-25T13:38:57;5.15;;;2.30;;
52848;SDS011;38714;53.180;5.812;2022-07-25T13:41:23;2.17;;;1.50;;
52848;SDS011;38714;53.180;5.812;2022-07-25T13:43:49;5.38;;;2.58;;
52848;SDS011;38714;53.180;5.812;2022-07-25T13:46:14;3.80;;;2.15;;
52848;SDS011;38714;53.180;5.812;2022-07-25T13:48:40;1.70;;;1.40;;
52848;SDS011;38714;53.180;5.812;2022-07-25T13:51:06;3.22;;;2.20;;
52848;SDS011;38714;53.180;5.812;2022-07-25T13:53:32;2.78;;;2.00;;
52848;SDS011;38714;53.180;5.812;2022-07-25T13:55:59;5.53;;;3.22;;
52848;SDS011;38714;53.180;5.812;2022-07-25T13:58:24;4.15;;;1.30;;
52848;SDS011;38714;53.180;5.812;2022-07-25T14:00:51;2.58;;;1.60;;
52848;SDS011;38714;53.180;5.812;2022-07-25T14:03:17;4.10;;;1.70;;
52848;SDS011;38714;53.180;5.812;2022-07-25T14:05:42;4.13;;;2.33;;
52848;SDS011;38714;53.180;5.812;2022-07-25T14:08:08;2.63;;;2.03;;
52848;SDS011;38714;53.180;5.812;2022-07-25T14:10:33;1.33;;;1.27;;
52848;SDS011;38714;53.180;5.812;2022-07-25T14:12:59;1.42;;;1.33;;
52848;SDS011;38714;53.180;5.812;2022-07-25T14:15:25;2.95;;;1.30;;
52848;SDS011;38714;53.180;5.812;2022-07-25T14:17:51;3.05;;;1.48;;
52848;SDS011;38714;53.180;5.812;2022-07-25T14:20:17;2.33;;;2.13;;
52848;SDS011;38714;53.180;5.812;2022-07-25T14:22:42;2.60;;;1.75;;
52848;SDS011;38714;53.180;5.812;2022-07-25T14:25:08;3.40;;;1.75;;
52848;SDS011;38714;53.180;5.812;2022-07-25T14:27:35;1.60;;;1.50;;
52848;SDS011;38714;53.180;5.812;2022-07-25T14:30:02;4.22;;;2.55;;
52848;SDS011;38714;53.180;5.812;2022-07-25T14:32:33;3.10;;;1.67;;
52848;SDS011;38714;53.180;5.812;2022-07-25T14:34:59;1.67;;;1.58;;
52848;SDS011;38714;53.180;5.812;2022-07-25T14:37:26;3.17;;;1.65;;
52848;SDS011;38714;53.180;5.812;2022-07-25T14:39:52;4.55;;;1.73;;
52848;SDS011;38714;53.180;5.812;2022-07-25T14:42:18;2.30;;;1.67;;
52848;SDS011;38714;53.180;5.812;2022-07-25T14:44:44;3.30;;;1.70;;
52848;SDS011;38714;53.180;5.812;2022-07-25T14:47:09;7.30;;;2.65;;
52848;SDS011;38714;53.180;5.812;2022-07-25T14:49:35;6.57;;;1.75;;
52848;SDS011;38714;53.180;5.812;2022-07-25T14:52:01;4.22;;;1.60;;
52848;SDS011;38714;53.180;5.812;2022-07-25T14:54:26;12.63;;;2.58;;
52848;SDS011;38714;53.180;5.812;2022-07-25T14:56:55;3.60;;;1.90;;
52848;SDS011;38714;53.180;5.812;2022-07-25T14:59:21;12.43;;;2.60;;
52848;SDS011;38714;53.180;5.812;2022-07-25T15:01:47;4.72;;;2.20;;